Time;durP1;ratioP1;P1;durP2;ratioP2;P2;SDS_P1;SDS_P2;PMS_P1;PMS_P2;Temp;Humidity;BMP_temperature;BMP_pressure;BME280_temperature;BME280_humidity;BME280_pressure;Samples;Min_cycle;Max_cycle;Signal;HPM_P1;HPM_P2
2023/06/01 00:00:14;;;;;;;;;;;12.30;99.90;;;;;;5133989;27;19919;-71
2023/06/01 00:02:40;;;;;;;;;;;12.30;99.90;;;;;;5135254;27;19920;-70
2023/06/01 00:05:06;;;;;;;;;;;12.30;99.90;;;;;;5117754;27;19919;-69
2023/06/01 00:07:33;;;;;;;;;;;12.40;99.90;;;;;;5117163;27;19927;-69
2023/06/01 00:10:00;;;;;;;;;;;12.30;99.90;;;;;;5134548;27;19936;-69
2023/06/01 00:12:26;;;;;;;;;;;12.40;99.90;;;;;;5117462;27;19955;-69
2023/06/01 00:14:51;;;;;;;;;;;12.30;99.90;;;;;;5134114;27;19984;-69
2023/06/01 00:17:17;;;;;;;;;;;12.40;99.90;;;;;;5135392;27;20094;-69
2023/06/01 00:19:47;;;;;;;;;;;12.40;99.90;;;;;;5133803;27;19919;-69
2023/06/01 00:22:13;;;;;;;;;;;12.40;99.90;;;;;;5135406;27;20333;-69
2023/06/01 00:24:38;;;;;;;;;;;12.40;99.90;;;;;;5133999;27;19977;-69
2023/06/01 00:27:05;;;;;;;;;;;12.30;99.90;;;;;;5134012;27;20330;-69
2023/06/01 00:29:30;;;;;;;;;;;12.30;99.90;;;;;;5133730;27;19926;-70
2023/06/01 00:31:56;;;;;;;;;;;12.20;99.90;;;;;;5116624;27;19920;-69
2023/06/01 00:34:21;;;;;;;;;;;12.20;99.90;;;;;;5133939;27;19926;-69
2023/06/01 00:36:47;;;;;;;;;;;12.20;99.90;;;;;;5133531;27;19934;-70
2023/06/01 00:39:12;;;;;;;;;;;12.20;99.90;;;;;;5116677;27;20376;-70
2023/06/01 00:41:38;;;;;;;;;;;12.30;99.90;;;;;;5134544;27;19919;-69
2023/06/01 00:44:04;;;;;;;;;;;12.30;99.90;;;;;;5116681;27;19919;-70
2023/06/01 00:46:30;;;;;;;;;;;12.30;99.90;;;;;;5133633;27;19926;-70
2023/06/01 00:48:57;;;;;;;;;;;12.30;99.90;;;;;;5115529;27;19938;-69
2023/06/01 00:51:23;;;;;;;;;;;12.20;99.90;;;;;;5134680;27;19970;-70
2023/06/01 00:53:49;;;;;;;;;;;12.20;99.90;;;;;;5133266;27;19981;-70
2023/06/01 00:56:15;;;;;;;;;;;12.20;99.90;;;;;;5168237;27;19919;-70
2023/06/01 00:58:41;;;;;;;;;;;12.20;99.90;;;;;;5132975;27;20330;-70
2023/06/01 01:01:07;;;;;;;;;;;12.20;99.90;;;;;;5133455;27;19915;-70
2023/06/01 01:03:34;;;;;;;;;;;12.20;99.90;;;;;;5133577;27;19919;-70
2023/06/01 01:06:11;;;;;;;;;;;12.20;99.90;;;;;;5132771;27;19962;-70
2023/06/01 01:09:00;;;;;;;;;;;12.20;99.90;;;;;;5167661;27;19927;-70
2023/06/01 01:11:29;;;;;;;;;;;12.20;99.90;;;;;;5168023;27;19919;-70
2023/06/01 01:13:57;;;;;;;;;;;12.20;99.90;;;;;;5133735;27;19920;-69
2023/06/01 01:16:27;;;;;;;;;;;12.20;99.90;;;;;;5133104;27;19919;-69
2023/06/01 01:19:08;;;;;;;;;;;12.20;99.90;;;;;;5115589;27;19979;-69
2023/06/01 01:21:36;;;;;;;;;;;12.20;99.90;;;;;;5133189;27;20013;-69
2023/06/01 01:24:21;;;;;;;;;;;12.10;99.90;;;;;;5133992;27;19969;-69
2023/06/01 01:26:47;;;;;;;;;;;12.10;99.90;;;;;;5132664;27;19925;-69
2023/06/01 01:29:14;;;;;;;;;;;12.10;99.90;;;;;;5133084;27;19931;-70
2023/06/01 01:31:40;;;;;;;;;;;12.10;99.90;;;;;;5115122;27;19923;-70
2023/06/01 01:34:07;;;;;;;;;;;12.10;99.90;;;;;;5132731;27;20060;-70
2023/06/01 01:36:33;;;;;;;;;;;12.10;99.90;;;;;;5133192;27;20252;-70
2023/06/01 01:38:58;;;;;;;;;;;12.10;99.90;;;;;;5149311;27;20276;-70
2023/06/01 01:41:25;;;;;;;;;;;12.00;99.90;;;;;;5115198;27;19939;-70
2023/06/01 01:43:51;;;;;;;;;;;12.00;99.90;;;;;;5131989;27;20435;-70
2023/06/01 01:46:17;;;;;;;;;;;12.00;99.90;;;;;;5131961;27;20009;-70
2023/06/01 01:48:52;;;;;;;;;;;12.00;99.90;;;;;;5114558;27;19965;-70
2023/06/01 01:51:26;;;;;;;;;;;12.00;99.90;;;;;;5132383;27;19927;-70
2023/06/01 01:53:52;;;;;;;;;;;12.00;99.90;;;;;;5131742;27;20351;-70
2023/06/01 01:56:18;;;;;;;;;;;12.00;99.90;;;;;;5132097;27;19930;-70
2023/06/01 01:58:45;;;;;;;;;;;11.90;99.90;;;;;;5131867;27;20292;-70
2023/06/01 02:01:12;;;;;;;;;;;12.00;99.90;;;;;;5114718;27;20280;-70
2023/06/01 02:03:37;;;;;;;;;;;12.00;99.90;;;;;;5132136;27;19927;-69
2023/06/01 02:06:03;;;;;;;;;;;11.90;99.90;;;;;;5132823;27;19919;-69
2023/06/01 02:08:28;;;;;;;;;;;12.00;99.90;;;;;;5132116;27;19923;-70
2023/06/01 02:10:54;;;;;;;;;;;12.00;99.90;;;;;;5114549;27;19919;-70
2023/06/01 02:13:20;;;;;;;;;;;12.00;99.90;;;;;;5133269;27;19926;-70
2023/06/01 02:15:45;;;;;;;;;;;12.00;99.90;;;;;;5131597;27;19920;-70
2023/06/01 02:18:11;;;;;;;;;;;12.00;99.90;;;;;;5114668;27;19967;-70
2023/06/01 02:20:36;;;;;;;;;;;12.00;99.90;;;;;;5131588;28;19919;-70
2023/06/01 02:23:02;;;;;;;;;;;12.00;99.90;;;;;;5131621;28;19919;-70
2023/06/01 02:25:28;;;;;;;;;;;12.00;99.90;;;;;;5131675;28;20283;-70
2023/06/01 02:27:53;;;;;;;;;;;12.00;99.90;;;;;;5131073;28;19940;-70
2023/06/01 02:30:19;;;;;;;;;;;12.00;99.90;;;;;;5115012;28;20387;-70
2023/06/01 02:32:45;;;;;;;;;;;12.00;99.90;;;;;;5131913;28;19987;-69
2023/06/01 02:35:10;;;;;;;;;;;12.00;99.90;;;;;;5131555;28;19919;-69
2023/06/01 02:37:36;;;;;;;;;;;12.00;99.90;;;;;;5131837;28;19919;-71
2023/06/01 02:40:02;;;;;;;;;;;12.00;99.90;;;;;;5131201;28;19920;-71
2023/06/01 02:42:28;;;;;;;;;;;12.00;99.90;;;;;;5115116;28;20076;-70
2023/06/01 02:44:53;;;;;;;;;;;12.00;99.90;;;;;;5131476;28;20368;-70
2023/06/01 02:47:19;;;;;;;;;;;12.00;99.90;;;;;;5131613;28;19927;-70
2023/06/01 02:49:45;;;;;;;;;;;12.00;99.90;;;;;;5132059;28;20022;-69
2023/06/01 02:52:10;;;;;;;;;;;12.00;99.90;;;;;;5131619;28;20002;-69
2023/06/01 02:54:36;;;;;;;;;;;12.00;99.90;;;;;;5131902;28;19919;-69
2023/06/01 02:57:01;;;;;;;;;;;12.00;99.90;;;;;;5114139;28;19962;-69
2023/06/01 02:59:27;;;;;;;;;;;11.90;99.90;;;;;;5131417;28;20344;-70
2023/06/01 03:01:52;;;;;;;;;;;12.00;99.90;;;;;;5114087;28;19919;-71
2023/06/01 03:04:18;;;;;;;;;;;12.00;99.90;;;;;;5114472;28;19923;-70
2023/06/01 03:06:45;;;;;;;;;;;12.00;99.90;;;;;;5131755;28;19919;-70
2023/06/01 03:09:12;;;;;;;;;;;12.00;99.90;;;;;;5113760;28;20360;-70
2023/06/01 03:11:42;;;;;;;;;;;12.00;99.90;;;;;;5131618;28;19931;-70
2023/06/01 03:14:08;;;;;;;;;;;11.90;99.90;;;;;;5148554;27;19919;-70
2023/06/01 03:16:34;;;;;;;;;;;11.90;99.90;;;;;;5131618;28;19919;-71
2023/06/01 03:19:00;;;;;;;;;;;11.90;99.90;;;;;;5131002;28;19958;-70
2023/06/01 03:21:27;;;;;;;;;;;11.80;99.90;;;;;;5131277;28;19926;-69
2023/06/01 03:23:52;;;;;;;;;;;11.80;99.90;;;;;;5097171;28;19919;-69
2023/06/01 03:26:20;;;;;;;;;;;11.80;99.90;;;;;;5113895;28;19930;-70
2023/06/01 03:28:46;;;;;;;;;;;11.80;99.90;;;;;;5114120;27;19927;-70
2023/06/01 03:31:12;;;;;;;;;;;11.80;99.90;;;;;;5134479;27;19919;-70
2023/06/01 03:33:38;;;;;;;;;;;11.80;99.90;;;;;;5134953;27;20375;-70
2023/06/01 03:36:04;;;;;;;;;;;11.80;99.90;;;;;;5151764;27;20299;-69
2023/06/01 03:38:30;;;;;;;;;;;11.90;99.90;;;;;;5134537;27;19939;-69
2023/06/01 03:40:56;;;;;;;;;;;11.90;99.90;;;;;;5134409;27;20007;-71
2023/06/01 03:43:21;;;;;;;;;;;11.90;99.90;;;;;;5117243;27;19963;-69
2023/06/01 03:45:47;;;;;;;;;;;11.90;99.90;;;;;;5117465;27;20385;-69
2023/06/01 03:48:13;;;;;;;;;;;11.90;99.90;;;;;;5168359;27;19926;-69
2023/06/01 03:50:38;;;;;;;;;;;11.90;99.90;;;;;;5134410;27;19926;-70
2023/06/01 03:53:04;;;;;;;;;;;11.90;99.90;;;;;;5133969;27;19926;-70
2023/06/01 03:55:30;;;;;;;;;;;11.90;99.90;;;;;;5134575;27;20253;-70
2023/06/01 03:57:56;;;;;;;;;;;11.90;99.90;;;;;;5135626;27;19977;-70
2023/06/01 04:00:23;;;;;;;;;;;11.90;99.90;;;;;;5133530;27;20331;-70
2023/06/01 04:02:50;;;;;;;;;;;11.90;99.90;;;;;;5134019;27;19931;-70
2023/06/01 04:05:17;;;;;;;;;;;11.80;99.90;;;;;;5151302;27;19926;-70
2023/06/01 04:07:43;;;;;;;;;;;11.80;99.90;;;;;;5134137;27;20314;-70
2023/06/01 04:10:11;;;;;;;;;;;11.90;99.90;;;;;;5133924;27;19920;-70
2023/06/01 04:12:36;;;;;;;;;;;11.80;99.90;;;;;;5116955;27;20360;-70
2023/06/01 04:15:02;;;;;;;;;;;11.80;99.90;;;;;;5134196;27;19939;-70
2023/06/01 04:17:28;;;;;;;;;;;11.80;99.90;;;;;;5116983;27;19929;-70
2023/06/01 04:19:53;;;;;;;;;;;11.80;99.90;;;;;;5134858;27;19919;-70
2023/06/01 04:22:19;;;;;;;;;;;11.80;99.90;;;;;;5133457;27;19926;-71
2023/06/01 04:24:45;;;;;;;;;;;11.80;99.90;;;;;;5116976;27;19927;-71
2023/06/01 04:27:15;;;;;;;;;;;11.80;99.90;;;;;;5134011;27;20284;-70
2023/06/01 04:29:43;;;;;;;;;;;11.90;99.90;;;;;;5116728;27;20269;-70
2023/06/01 04:32:09;;;;;;;;;;;11.80;99.90;;;;;;5133687;27;19927;-71
2023/06/01 04:34:35;;;;;;;;;;;11.80;99.90;;;;;;5133875;27;20264;-70
2023/06/01 04:37:04;;;;;;;;;;;11.80;99.90;;;;;;5134977;27;19920;-71
2023/06/01 04:39:30;;;;;;;;;;;11.80;99.90;;;;;;5116587;27;19926;-70
2023/06/01 04:41:57;;;;;;;;;;;11.70;99.90;;;;;;5132578;27;19919;-70
2023/06/01 04:44:22;;;;;;;;;;;11.70;99.90;;;;;;5168084;27;20272;-70
2023/06/01 04:46:49;;;;;;;;;;;11.70;99.90;;;;;;5116606;27;19923;-70
2023/06/01 04:49:15;;;;;;;;;;;11.70;99.90;;;;;;5132835;27;20387;-70
2023/06/01 04:51:41;;;;;;;;;;;11.70;99.90;;;;;;5099433;27;19920;-70
2023/06/01 04:54:07;;;;;;;;;;;11.80;99.90;;;;;;5150343;27;19919;-70
2023/06/01 04:56:32;;;;;;;;;;;11.70;99.90;;;;;;5133067;27;19939;-71
2023/06/01 04:58:58;;;;;;;;;;;11.80;99.90;;;;;;5133336;27;19920;-70
2023/06/01 05:01:29;;;;;;;;;;;11.80;99.90;;;;;;5098299;27;19919;-70
2023/06/01 05:03:55;;;;;;;;;;;11.80;99.90;;;;;;5133331;27;19939;-70
2023/06/01 05:06:21;;;;;;;;;;;11.80;99.90;;;;;;5115884;27;19923;-70
2023/06/01 05:08:47;;;;;;;;;;;11.80;99.90;;;;;;5115648;27;20386;-70
2023/06/01 05:11:13;;;;;;;;;;;11.80;99.90;;;;;;5132910;27;19968;-71
2023/06/01 05:13:39;;;;;;;;;;;11.80;99.90;;;;;;5133262;27;19920;-69
2023/06/01 05:16:05;;;;;;;;;;;11.80;99.90;;;;;;5132979;27;19926;-69
2023/06/01 05:18:31;;;;;;;;;;;11.80;99.90;;;;;;5115282;27;20479;-69
2023/06/01 05:20:57;;;;;;;;;;;11.70;99.90;;;;;;5133146;27;19927;-69
2023/06/01 05:23:23;;;;;;;;;;;11.90;99.90;;;;;;5133875;27;20014;-71
2023/06/01 05:25:48;;;;;;;;;;;11.80;99.90;;;;;;5115840;27;19927;-69
2023/06/01 05:28:14;;;;;;;;;;;11.80;99.90;;;;;;5132649;27;20304;-69
2023/06/01 05:30:40;;;;;;;;;;;11.80;99.90;;;;;;5115716;27;19968;-71
2023/06/01 05:33:06;;;;;;;;;;;11.90;99.90;;;;;;5115692;27;19973;-69
2023/06/01 05:35:31;;;;;;;;;;;11.80;99.90;;;;;;5132104;27;20348;-71
2023/06/01 05:37:57;;;;;;;;;;;11.80;99.90;;;;;;5132981;27;19967;-71
2023/06/01 05:40:22;;;;;;;;;;;11.80;99.90;;;;;;5097902;27;19919;-71
2023/06/01 05:42:48;;;;;;;;;;;11.80;99.90;;;;;;5115638;27;20013;-71
2023/06/01 05:45:13;;;;;;;;;;;11.80;99.90;;;;;;5132481;27;20276;-71
2023/06/01 05:47:39;;;;;;;;;;;11.80;99.90;;;;;;5114650;27;20014;-70
2023/06/01 05:50:05;;;;;;;;;;;11.80;99.90;;;;;;5132546;27;19923;-70
2023/06/01 05:52:31;;;;;;;;;;;11.80;99.90;;;;;;5149053;27;19919;-70
2023/06/01 05:54:56;;;;;;;;;;;11.80;99.90;;;;;;5132201;27;19968;-70
2023/06/01 05:57:22;;;;;;;;;;;11.80;99.90;;;;;;5131843;27;20344;-71
2023/06/01 05:59:47;;;;;;;;;;;11.90;99.90;;;;;;5132764;27;19923;-70
2023/06/01 06:02:13;;;;;;;;;;;11.90;99.90;;;;;;5132213;27;19926;-70
2023/06/01 06:04:39;;;;;;;;;;;11.90;99.90;;;;;;5131920;27;19915;-70
2023/06/01 06:07:05;;;;;;;;;;;12.00;99.90;;;;;;5114857;27;20361;-70
2023/06/01 06:09:31;;;;;;;;;;;12.00;99.90;;;;;;5114536;27;19927;-71
2023/06/01 06:11:57;;;;;;;;;;;12.00;99.90;;;;;;5131635;27;19919;-70
2023/06/01 06:14:22;;;;;;;;;;;12.00;99.90;;;;;;5114468;27;19919;-71
2023/06/01 06:16:48;;;;;;;;;;;12.00;99.90;;;;;;5131837;27;19923;-70
2023/06/01 06:19:15;;;;;;;;;;;12.00;99.90;;;;;;5149220;27;20284;-70
2023/06/01 06:21:41;;;;;;;;;;;12.00;99.90;;;;;;5114299;28;19963;-70
2023/06/01 06:24:07;;;;;;;;;;;12.10;99.90;;;;;;5097812;28;19919;-69
2023/06/01 06:26:32;;;;;;;;;;;12.10;99.90;;;;;;5132280;28;19919;-69
2023/06/01 06:28:58;;;;;;;;;;;12.00;99.90;;;;;;5114474;28;19931;-69
2023/06/01 06:31:24;;;;;;;;;;;12.10;99.90;;;;;;5131167;28;19931;-71
2023/06/01 06:33:49;;;;;;;;;;;12.00;99.90;;;;;;5132857;27;19926;-70
2023/06/01 06:36:16;;;;;;;;;;;12.00;99.90;;;;;;5131854;28;19925;-70
2023/06/01 06:38:41;;;;;;;;;;;12.00;99.90;;;;;;5131212;28;19973;-70
2023/06/01 06:41:07;;;;;;;;;;;12.10;99.90;;;;;;5132540;27;19966;-67
2023/06/01 06:43:32;;;;;;;;;;;12.10;99.90;;;;;;5131085;28;19919;-67
2023/06/01 06:45:58;;;;;;;;;;;12.10;99.90;;;;;;5131765;28;20397;-67
2023/06/01 06:48:23;;;;;;;;;;;12.10;99.90;;;;;;5131396;28;20014;-68
2023/06/01 06:50:49;;;;;;;;;;;12.10;99.90;;;;;;5132398;28;19919;-68
2023/06/01 06:53:15;;;;;;;;;;;12.10;99.90;;;;;;5131555;28;19919;-67
2023/06/01 06:55:42;;;;;;;;;;;12.10;99.90;;;;;;5114441;28;20002;-67
2023/06/01 06:58:10;;;;;;;;;;;12.10;99.90;;;;;;5132850;27;19923;-68
2023/06/01 07:00:36;;;;;;;;;;;12.00;99.90;;;;;;5131074;28;19926;-68
2023/06/01 07:03:03;;;;;;;;;;;12.00;99.90;;;;;;5132681;27;19920;-68
2023/06/01 07:05:28;;;;;;;;;;;12.10;99.90;;;;;;5134295;27;19927;-69
2023/06/01 07:07:54;;;;;;;;;;;12.10;99.90;;;;;;5118554;27;19919;-67
2023/06/01 07:10:20;;;;;;;;;;;12.20;99.90;;;;;;5136243;27;19919;-68
2023/06/01 07:12:46;;;;;;;;;;;12.20;99.90;;;;;;5135245;27;20280;-68
2023/06/01 07:15:11;;;;;;;;;;;12.20;99.90;;;;;;5136412;27;19920;-68
2023/06/01 07:17:37;;;;;;;;;;;12.30;99.90;;;;;;5136171;27;19927;-68
2023/06/01 07:20:06;;;;;;;;;;;12.20;99.90;;;;;;5135017;27;19919;-65
2023/06/01 07:22:32;;;;;;;;;;;12.20;99.90;;;;;;5134788;27;20075;-67
2023/06/01 07:24:57;;;;;;;;;;;12.20;99.90;;;;;;5169524;27;20445;-66
2023/06/01 07:27:23;;;;;;;;;;;12.20;99.90;;;;;;5136355;27;19961;-66
2023/06/01 07:29:54;;;;;;;;;;;12.20;99.90;;;;;;5134745;27;20017;-66
2023/06/01 07:32:21;;;;;;;;;;;12.20;99.90;;;;;;5118445;27;19920;-66
2023/06/01 07:34:46;;;;;;;;;;;12.20;99.90;;;;;;5134967;27;20051;-68
2023/06/01 07:37:12;;;;;;;;;;;12.20;99.90;;;;;;5135214;27;19962;-68
2023/06/01 07:39:38;;;;;;;;;;;12.20;99.90;;;;;;5135448;27;19923;-66
2023/06/01 07:42:03;;;;;;;;;;;12.20;99.90;;;;;;5135861;27;20206;-67
2023/06/01 07:44:29;;;;;;;;;;;12.20;99.90;;;;;;5135706;27;20027;-67
2023/06/01 07:46:56;;;;;;;;;;;12.20;99.90;;;;;;5116603;27;20426;-67
2023/06/01 07:49:22;;;;;;;;;;;12.20;99.90;;;;;;5116922;27;20349;-66
2023/06/01 07:51:49;;;;;;;;;;;12.30;99.90;;;;;;5135246;27;20013;-68
2023/06/01 07:54:14;;;;;;;;;;;12.30;99.90;;;;;;5100719;27;19923;-67
2023/06/01 07:56:40;;;;;;;;;;;12.30;99.90;;;;;;5135203;27;19929;-67
2023/06/01 07:59:06;;;;;;;;;;;12.30;99.90;;;;;;5134395;27;20591;-66
2023/06/01 08:01:32;;;;;;;;;;;12.40;99.90;;;;;;5134653;27;20359;-66
2023/06/01 08:03:58;;;;;;;;;;;12.40;99.90;;;;;;5133938;27;19951;-67
2023/06/01 08:06:24;;;;;;;;;;;12.40;99.90;;;;;;5135570;27;19923;-67
2023/06/01 08:08:51;;;;;;;;;;;12.50;99.90;;;;;;5135254;27;19924;-65
2023/06/01 08:11:16;;;;;;;;;;;12.60;99.90;;;;;;5135575;27;19924;-66
2023/06/01 08:13:45;;;;;;;;;;;12.60;99.90;;;;;;5134226;27;19931;-67
2023/06/01 08:16:12;;;;;;;;;;;12.60;99.90;;;;;;5116676;27;20011;-67
2023/06/01 08:18:38;;;;;;;;;;;12.60;99.90;;;;;;5134043;27;19933;-68
2023/06/01 08:21:04;;;;;;;;;;;12.60;99.90;;;;;;5116289;27;19923;-66
2023/06/01 08:23:30;;;;;;;;;;;12.60;99.90;;;;;;5117097;27;19962;-67
2023/06/01 08:25:55;;;;;;;;;;;12.50;99.90;;;;;;5099549;27;19966;-67
2023/06/01 08:28:21;;;;;;;;;;;12.50;99.90;;;;;;5116406;27;19946;-67
2023/06/01 08:30:47;;;;;;;;;;;12.50;99.90;;;;;;5096961;27;19967;-68
2023/06/01 08:33:12;;;;;;;;;;;12.50;99.90;;;;;;5131323;27;19968;-68
2023/06/01 08:35:38;;;;;;;;;;;12.60;99.90;;;;;;5134019;27;20412;-67
2023/06/01 08:38:03;;;;;;;;;;;12.50;99.90;;;;;;5113602;27;19980;-66
2023/06/01 08:40:31;;;;;;;;;;;12.50;99.90;;;;;;5132839;27;19923;-66
2023/06/01 08:42:57;;;;;;;;;;;12.60;99.90;;;;;;5114773;27;19923;-66
2023/06/01 08:45:23;;;;;;;;;;;12.60;99.90;;;;;;5116722;27;19979;-66
2023/06/01 08:47:49;;;;;;;;;;;12.60;99.90;;;;;;5132991;27;19931;-66
2023/06/01 08:50:15;;;;;;;;;;;12.50;99.90;;;;;;5150919;27;20027;-66
2023/06/01 08:52:43;;;;;;;;;;;12.50;99.90;;;;;;5133559;27;19940;-66
2023/06/01 08:55:08;;;;;;;;;;;12.50;99.90;;;;;;5132989;27;19927;-66
2023/06/01 08:57:35;;;;;;;;;;;12.50;99.90;;;;;;5133491;27;20403;-66
2023/06/01 09:00:01;;;;;;;;;;;12.50;99.90;;;;;;5133969;27;19927;-67
2023/06/01 09:02:27;;;;;;;;;;;12.60;99.90;;;;;;5133321;27;20249;-66
2023/06/01 09:04:53;;;;;;;;;;;12.60;99.90;;;;;;5150236;27;19970;-67
2023/06/01 09:07:19;;;;;;;;;;;12.60;99.90;;;;;;5133045;27;20392;-68
2023/06/01 09:09:48;;;;;;;;;;;12.70;99.90;;;;;;5133996;27;19930;-70
2023/06/01 09:12:18;;;;;;;;;;;12.70;99.90;;;;;;5132458;27;19924;-69
2023/06/01 09:14:43;;;;;;;;;;;12.70;99.90;;;;;;5131945;27;19924;-69
2023/06/01 09:17:22;;;;;;;;;;;12.80;99.90;;;;;;5113335;27;20336;-68
2023/06/01 09:19:47;;;;;;;;;;;12.80;99.90;;;;;;5113964;27;20390;-69
2023/06/01 09:22:13;;;;;;;;;;;12.90;99.90;;;;;;5130569;27;19927;-68
2023/06/01 09:24:40;;;;;;;;;;;12.90;99.90;;;;;;5133408;27;19924;-67
2023/06/01 09:27:07;;;;;;;;;;;12.90;99.90;;;;;;5146521;27;19926;-69
2023/06/01 09:29:32;;;;;;;;;;;13.00;99.90;;;;;;5114979;27;19924;-68
2023/06/01 09:31:59;;;;;;;;;;;13.00;99.90;;;;;;5115042;27;19995;-69
2023/06/01 09:34:25;;;;;;;;;;;13.00;99.90;;;;;;5132274;27;19930;-68
2023/06/01 09:36:51;;;;;;;;;;;13.00;99.90;;;;;;5130396;27;20284;-68
2023/06/01 09:39:21;;;;;;;;;;;12.90;99.90;;;;;;5111072;27;19996;-68
2023/06/01 09:41:48;;;;;;;;;;;12.90;99.90;;;;;;5131363;27;19923;-69
2023/06/01 09:44:14;;;;;;;;;;;12.90;99.90;;;;;;5132384;27;19923;-68
2023/06/01 09:46:49;;;;;;;;;;;12.90;99.90;;;;;;5130771;27;20406;-68
2023/06/01 09:49:19;;;;;;;;;;;13.00;99.90;;;;;;5131291;27;20421;-68
2023/06/01 09:51:45;;;;;;;;;;;13.10;99.90;;;;;;5130285;27;19934;-68
2023/06/01 09:54:21;;;;;;;;;;;13.10;99.90;;;;;;5131137;27;19920;-69
2023/06/01 09:56:46;;;;;;;;;;;13.20;99.90;;;;;;5114797;27;19929;-68
2023/06/01 09:59:12;;;;;;;;;;;13.20;99.90;;;;;;5131560;27;19923;-67
2023/06/01 10:01:38;;;;;;;;;;;13.20;99.90;;;;;;5097065;27;19927;-68
2023/06/01 10:04:04;;;;;;;;;;;13.30;99.90;;;;;;5112712;27;20022;-67
2023/06/01 10:06:33;;;;;;;;;;;13.30;99.90;;;;;;5132349;27;20035;-67
2023/06/01 10:08:59;;;;;;;;;;;13.30;99.90;;;;;;5131612;27;20373;-67
2023/06/01 10:11:27;;;;;;;;;;;13.40;99.90;;;;;;5132642;27;20390;-68
2023/06/01 10:13:52;;;;;;;;;;;13.40;99.90;;;;;;5130888;27;20398;-70
2023/06/01 10:16:18;;;;;;;;;;;13.50;99.90;;;;;;5114185;27;19924;-66
2023/06/01 10:18:45;;;;;;;;;;;13.50;99.90;;;;;;5114645;27;19976;-67
2023/06/01 10:21:11;;;;;;;;;;;13.50;99.90;;;;;;5148731;27;19931;-67
2023/06/01 10:23:37;;;;;;;;;;;13.60;99.90;;;;;;5148662;27;19923;-68
2023/06/01 10:26:09;;;;;;;;;;;13.60;99.90;;;;;;5114159;28;19972;-68
2023/06/01 10:28:36;;;;;;;;;;;13.60;99.90;;;;;;5128797;28;20437;-69
2023/06/01 10:31:20;;;;;;;;;;;13.60;99.90;;;;;;5131229;28;19980;-69
2023/06/01 10:33:53;;;;;;;;;;;13.60;99.90;;;;;;5131764;28;19954;-69
2023/06/01 10:36:18;;;;;;;;;;;13.70;99.90;;;;;;5112945;28;19930;-70
2023/06/01 10:38:44;;;;;;;;;;;13.80;99.90;;;;;;5115898;27;19923;-69
2023/06/01 10:41:30;;;;;;;;;;;13.90;99.90;;;;;;5118792;27;19923;-67
2023/06/01 10:43:55;;;;;;;;;;;13.90;99.90;;;;;;5135879;27;19923;-70
2023/06/01 10:46:34;;;;;;;;;;;14.00;99.90;;;;;;5118715;27;19975;-68
2023/06/01 10:49:00;;;;;;;;;;;14.10;99.90;;;;;;5118231;27;20002;-70
2023/06/01 10:51:25;;;;;;;;;;;14.10;99.90;;;;;;5136016;27;20011;-69
2023/06/01 10:53:52;;;;;;;;;;;14.00;99.90;;;;;;5135710;27;19923;-67
2023/06/01 10:56:26;;;;;;;;;;;14.10;99.90;;;;;;5152706;27;20523;-68
2023/06/01 10:59:09;;;;;;;;;;;13.90;99.90;;;;;;5170175;27;19923;-68
2023/06/01 11:01:36;;;;;;;;;;;13.90;99.90;;;;;;5135459;27;20376;-68
2023/06/01 11:04:01;;;;;;;;;;;14.00;99.90;;;;;;5100544;27;20424;-67
2023/06/01 11:06:35;;;;;;;;;;;14.10;99.90;;;;;;5170088;27;19927;-66
2023/06/01 11:09:05;;;;;;;;;;;14.10;99.90;;;;;;5135125;27;19923;-68
2023/06/01 11:11:52;;;;;;;;;;;14.10;99.90;;;;;;5152602;27;19931;-69
2023/06/01 11:14:25;;;;;;;;;;;14.20;99.90;;;;;;5116664;27;19927;-69
2023/06/01 11:16:52;;;;;;;;;;;14.20;99.90;;;;;;5118395;27;20372;-70
2023/06/01 11:19:20;;;;;;;;;;;14.20;99.90;;;;;;5134824;27;20115;-68
2023/06/01 11:21:46;;;;;;;;;;;14.30;99.90;;;;;;5135305;27;20014;-68
2023/06/01 11:24:13;;;;;;;;;;;14.40;99.90;;;;;;5134999;27;20365;-68
2023/06/01 11:26:40;;;;;;;;;;;14.40;99.90;;;;;;5135595;27;19923;-68
2023/06/01 11:29:21;;;;;;;;;;;14.50;99.90;;;;;;5135045;27;20284;-70
2023/06/01 11:31:58;;;;;;;;;;;14.60;99.90;;;;;;5118265;27;19924;-68
2023/06/01 11:34:34;;;;;;;;;;;14.60;99.90;;;;;;5134785;27;19931;-70
2023/06/01 11:37:01;;;;;;;;;;;14.50;99.90;;;;;;5135286;27;19936;-67
2023/06/01 11:39:30;;;;;;;;;;;14.50;99.90;;;;;;5134854;27;19970;-67
2023/06/01 11:42:06;;;;;;;;;;;14.50;99.90;;;;;;5136253;27;19930;-67
2023/06/01 11:44:32;;;;;;;;;;;14.50;99.90;;;;;;5134900;27;20268;-67
2023/06/01 11:46:58;;;;;;;;;;;14.30;99.90;;;;;;5133431;27;19927;-68
2023/06/01 11:49:25;;;;;;;;;;;14.20;99.90;;;;;;5131466;27;20003;-68
2023/06/01 11:51:51;;;;;;;;;;;14.10;99.90;;;;;;5134344;27;19971;-68
2023/06/01 11:54:21;;;;;;;;;;;14.10;99.90;;;;;;5117322;27;19934;-68
2023/06/01 11:56:47;;;;;;;;;;;14.10;99.90;;;;;;5117531;27;19932;-69
2023/06/01 11:59:12;;;;;;;;;;;14.10;99.90;;;;;;5133958;27;19928;-68
2023/06/01 12:01:42;;;;;;;;;;;14.10;99.90;;;;;;5134583;27;19927;-68
2023/06/01 12:04:18;;;;;;;;;;;14.20;99.90;;;;;;5133504;27;19970;-68
2023/06/01 12:06:45;;;;;;;;;;;14.30;99.90;;;;;;5135174;27;19927;-67
2023/06/01 12:09:11;;;;;;;;;;;14.30;99.90;;;;;;5134156;27;19923;-68
2023/06/01 12:11:37;;;;;;;;;;;14.20;99.90;;;;;;5134308;27;19968;-67
2023/06/01 12:14:05;;;;;;;;;;;14.20;99.90;;;;;;5116172;27;20022;-67
2023/06/01 12:16:49;;;;;;;;;;;14.20;99.90;;;;;;5134073;27;19931;-67
2023/06/01 12:19:15;;;;;;;;;;;14.10;99.90;;;;;;5133247;27;19983;-68
2023/06/01 12:21:46;;;;;;;;;;;14.10;99.90;;;;;;5132841;27;20014;-67
2023/06/01 12:24:12;;;;;;;;;;;14.20;99.90;;;;;;5134456;27;20456;-67
2023/06/01 12:26:38;;;;;;;;;;;14.10;99.90;;;;;;5135169;27;20026;-67
2023/06/01 12:29:03;;;;;;;;;;;14.10;99.90;;;;;;5134216;27;19923;-67
2023/06/01 12:31:29;;;;;;;;;;;14.00;99.90;;;;;;5133566;27;19926;-67
2023/06/01 12:33:55;;;;;;;;;;;14.00;99.90;;;;;;5133657;27;20307;-68
2023/06/01 12:36:33;;;;;;;;;;;14.10;99.90;;;;;;5133567;27;20063;-68
2023/06/01 12:38:59;;;;;;;;;;;14.10;99.90;;;;;;5116464;27;19931;-69
2023/06/01 12:41:25;;;;;;;;;;;14.00;99.90;;;;;;5132530;27;19938;-67
2023/06/01 12:43:51;;;;;;;;;;;14.00;99.90;;;;;;5133298;27;19924;-68
2023/06/01 12:46:32;;;;;;;;;;;14.10;99.90;;;;;;5132903;27;19927;-68
2023/06/01 12:49:19;;;;;;;;;;;14.10;99.90;;;;;;5134302;27;20333;-66
2023/06/01 12:51:45;;;;;;;;;;;14.10;99.90;;;;;;5133480;27;19923;-66
2023/06/01 12:54:11;;;;;;;;;;;14.10;99.90;;;;;;5133252;27;19930;-71
2023/06/01 12:56:37;;;;;;;;;;;14.00;99.90;;;;;;5116456;27;19923;-67
2023/06/01 12:59:03;;;;;;;;;;;13.90;99.90;;;;;;5150429;27;19930;-67
2023/06/01 13:01:28;;;;;;;;;;;13.90;99.90;;;;;;5132068;27;19970;-66
2023/06/01 13:03:55;;;;;;;;;;;13.90;99.90;;;;;;5133171;27;19923;-68
2023/06/01 13:06:21;;;;;;;;;;;13.80;99.90;;;;;;5116126;27;19930;-67
2023/06/01 13:08:47;;;;;;;;;;;13.80;99.90;;;;;;5116338;27;19924;-67
2023/06/01 13:11:12;;;;;;;;;;;13.80;99.90;;;;;;5116060;27;20249;-69
2023/06/01 13:13:38;;;;;;;;;;;13.90;99.90;;;;;;5133642;27;20257;-68
2023/06/01 13:16:04;;;;;;;;;;;13.90;99.90;;;;;;5130718;27;20422;-67
2023/06/01 13:18:30;;;;;;;;;;;13.90;99.90;;;;;;5133670;27;20370;-67
2023/06/01 13:20:58;;;;;;;;;;;14.00;99.90;;;;;;5115410;27;19978;-67
2023/06/01 13:23:24;;;;;;;;;;;14.00;99.90;;;;;;5132248;27;20392;-66
2023/06/01 13:25:49;;;;;;;;;;;14.00;99.90;;;;;;5127521;27;20038;-69
2023/06/01 13:28:15;;;;;;;;;;;14.20;99.90;;;;;;5132041;27;19923;-70
2023/06/01 13:30:41;;;;;;;;;;;14.30;99.90;;;;;;5132414;27;20284;-67
2023/06/01 13:33:08;;;;;;;;;;;14.40;99.90;;;;;;5115895;27;19934;-67
2023/06/01 13:35:33;;;;;;;;;;;14.30;99.90;;;;;;5132168;27;19923;-68
2023/06/01 13:37:59;;;;;;;;;;;14.30;99.90;;;;;;5115364;27;20292;-68
2023/06/01 13:40:25;;;;;;;;;;;14.30;99.90;;;;;;5097997;27;19928;-67
2023/06/01 13:42:51;;;;;;;;;;;14.30;99.90;;;;;;5115240;27;19970;-67
2023/06/01 13:45:17;;;;;;;;;;;14.20;99.90;;;;;;5132287;27;19999;-71
2023/06/01 13:47:44;;;;;;;;;;;14.10;99.90;;;;;;5131025;27;19919;-68
2023/06/01 13:50:12;;;;;;;;;;;14.10;99.90;;;;;;5132111;27;19929;-67
2023/06/01 13:52:38;;;;;;;;;;;14.10;99.90;;;;;;5115071;27;19927;-67
2023/06/01 13:55:04;;;;;;;;;;;14.00;99.90;;;;;;5149596;27;20023;-68
2023/06/01 13:57:29;;;;;;;;;;;14.10;99.90;;;;;;5131458;27;19923;-68
2023/06/01 13:59:55;;;;;;;;;;;14.10;99.90;;;;;;5131998;27;19946;-68
2023/06/01 14:02:20;;;;;;;;;;;14.10;99.90;;;;;;5131598;27;20261;-68
2023/06/01 14:04:46;;;;;;;;;;;14.10;99.90;;;;;;5112940;27;19971;-68
2023/06/01 14:07:11;;;;;;;;;;;14.10;99.90;;;;;;5114824;27;20018;-69
2023/06/01 14:09:37;;;;;;;;;;;14.10;99.90;;;;;;5113120;27;19935;-67
2023/06/01 14:12:03;;;;;;;;;;;14.20;99.90;;;;;;5098200;27;20361;-68
2023/06/01 14:14:28;;;;;;;;;;;14.20;99.90;;;;;;5114126;27;20016;-68